Time;durP1;ratioP1;P1;durP2;ratioP2;P2;SDS_P1;SDS_P2;PMS_P1;PMS_P2;Temp;Humidity;BMP_temperature;BMP_pressure;BME280_temperature;BME280_humidity;BME280_pressure;Samples;Min_cycle;Max_cycle;Signal;HPM_P1;HPM_P2
2023/01/26 00:01:13;;;;;;;55.67;19.92;;;0.70;99.90;;;;;;5048051;28;20479;-69
2023/01/26 00:03:39;;;;;;;57.78;19.00;;;0.70;99.90;;;;;;5050078;28;20044;-69
2023/01/26 00:06:06;;;;;;;53.80;19.65;;;0.70;99.90;;;;;;5050529;28;20033;-69
2023/01/26 00:08:39;;;;;;;58.38;19.27;;;0.60;99.90;;;;;;5051361;28;20059;-69
2023/01/26 00:11:06;;;;;;;54.90;20.70;;;0.70;99.90;;;;;;5051260;28;20037;-69
2023/01/26 00:13:32;;;;;;;51.67;20.67;;;0.60;99.90;;;;;;5032686;28;20037;-68
2023/01/26 00:15:58;;;;;;;57.72;19.23;;;0.70;99.90;;;;;;5050043;28;20051;-69
2023/01/26 00:18:23;;;;;;;56.67;21.23;;;0.70;99.90;;;;;;5050869;28;20040;-68
2023/01/26 00:20:55;;;;;;;54.65;18.98;;;0.80;99.90;;;;;;5049610;28;20041;-68
2023/01/26 00:23:21;;;;;;;60.90;20.10;;;0.70;99.90;;;;;;5049713;28;20041;-69
2023/01/26 00:25:47;;;;;;;61.70;19.50;;;0.70;99.90;;;;;;5048878;28;20041;-69
2023/01/26 00:28:12;;;;;;;58.67;20.48;;;0.70;99.90;;;;;;5050704;28;20041;-69
2023/01/26 00:30:38;;;;;;;61.50;22.10;;;0.70;99.90;;;;;;5049397;28;20056;-69
2023/01/26 00:33:03;;;;;;;60.20;21.58;;;0.80;99.90;;;;;;5050982;28;20063;-68
2023/01/26 00:35:29;;;;;;;59.55;20.50;;;0.80;99.90;;;;;;5049068;28;20045;-69
2023/01/26 00:37:54;;;;;;;62.05;22.05;;;0.80;99.90;;;;;;5049166;28;20045;-69
2023/01/26 00:40:20;;;;;;;56.60;20.90;;;0.80;99.90;;;;;;5050891;28;20079;-68
2023/01/26 00:42:45;;;;;;;59.65;21.02;;;0.80;99.90;;;;;;5049629;28;20044;-68
2023/01/26 00:45:11;;;;;;;64.85;21.77;;;0.80;99.90;;;;;;5049857;28;20040;-68
2023/01/26 00:47:37;;;;;;;55.28;20.90;;;0.90;99.90;;;;;;5050925;28;20116;-68
2023/01/26 00:50:02;;;;;;;56.50;20.17;;;0.80;99.90;;;;;;5049293;28;20036;-68
2023/01/26 00:52:28;;;;;;;56.35;18.00;;;0.90;99.90;;;;;;5050682;28;20043;-68
2023/01/26 00:54:53;;;;;;;59.72;20.45;;;0.90;99.90;;;;;;5048481;28;20056;-68
2023/01/26 00:57:19;;;;;;;60.67;20.95;;;0.90;99.90;;;;;;5050824;28;20045;-68
2023/01/26 00:59:45;;;;;;;58.20;20.40;;;0.70;99.90;;;;;;5050536;28;20037;-68
2023/01/26 01:02:10;;;;;;;64.32;20.92;;;0.70;99.90;;;;;;5032701;28;20033;-68
2023/01/26 01:04:36;;;;;;;59.33;21.15;;;0.80;99.90;;;;;;5049944;28;20072;-68
2023/01/26 01:07:01;;;;;;;55.42;19.30;;;0.80;99.90;;;;;;5050311;28;20120;-69
2023/01/26 01:09:27;;;;;;;62.28;20.08;;;0.80;99.90;;;;;;5050556;28;20040;-68
2023/01/26 01:11:53;;;;;;;62.90;20.73;;;0.80;99.90;;;;;;5050183;28;20041;-68
2023/01/26 01:14:18;;;;;;;57.72;19.65;;;0.80;99.90;;;;;;5048229;28;20094;-68
2023/01/26 01:16:45;;;;;;;54.05;18.63;;;0.80;99.90;;;;;;5050101;28;20556;-68
2023/01/26 01:19:16;;;;;;;61.55;19.58;;;0.80;99.90;;;;;;5050548;28;20041;-68
2023/01/26 01:21:42;;;;;;;59.85;19.35;;;0.80;99.90;;;;;;5050497;28;20072;-68
2023/01/26 01:24:08;;;;;;;58.17;20.92;;;0.80;99.90;;;;;;5049804;28;20048;-68
2023/01/26 01:26:34;;;;;;;57.47;19.17;;;0.90;99.90;;;;;;5052050;28;20037;-68
2023/01/26 01:28:59;;;;;;;54.83;19.33;;;0.80;99.90;;;;;;5054223;28;20036;-68
2023/01/26 01:31:25;;;;;;;52.15;19.80;;;0.90;99.90;;;;;;5054003;28;20648;-68
2023/01/26 01:33:53;;;;;;;49.70;18.98;;;1.00;99.90;;;;;;5053147;28;20041;-68
2023/01/26 01:36:18;;;;;;;53.55;18.58;;;1.00;99.90;;;;;;5053930;28;20068;-68
2023/01/26 01:38:45;;;;;;;51.33;18.38;;;1.00;99.90;;;;;;5052462;28;20075;-68
2023/01/26 01:41:11;;;;;;;52.58;21.45;;;0.90;99.90;;;;;;5053934;28;20036;-68
2023/01/26 01:43:37;;;;;;;54.83;18.80;;;0.90;99.90;;;;;;5053610;28;20036;-68
2023/01/26 01:46:10;;;;;;;55.03;19.23;;;1.00;99.90;;;;;;5053339;28;20090;-68
2023/01/26 01:48:40;;;;;;;52.28;16.95;;;1.00;99.90;;;;;;5052673;28;20092;-68
2023/01/26 01:51:13;;;;;;;43.53;15.60;;;1.00;99.90;;;;;;5052452;28;20114;-68
2023/01/26 01:53:45;;;;;;;47.30;17.00;;;1.10;99.90;;;;;;5053739;28;20060;-68
2023/01/26 01:56:20;;;;;;;49.35;17.23;;;1.10;99.90;;;;;;5053514;28;20056;-68
2023/01/26 01:58:47;;;;;;;56.42;17.60;;;1.00;99.90;;;;;;5053699;28;20064;-68
2023/01/26 02:01:13;;;;;;;48.95;17.65;;;1.10;99.90;;;;;;5053601;28;20143;-69
2023/01/26 02:03:40;;;;;;;53.75;18.45;;;1.10;99.90;;;;;;5052125;28;20120;-69
2023/01/26 02:06:14;;;;;;;52.13;17.55;;;1.10;99.90;;;;;;5051667;28;20049;-68
2023/01/26 02:08:53;;;;;;;50.08;18.80;;;1.00;99.90;;;;;;5051993;28;20049;-68
2023/01/26 02:11:28;;;;;;;51.75;18.02;;;1.00;99.90;;;;;;5035368;28;20124;-68
2023/01/26 02:13:57;;;;;;;54.35;17.25;;;1.00;99.90;;;;;;5052619;28;20090;-68
2023/01/26 02:16:22;;;;;;;49.40;17.38;;;1.00;99.90;;;;;;5053009;28;20048;-68
2023/01/26 02:18:48;;;;;;;51.63;17.83;;;1.00;99.90;;;;;;5051806;28;20041;-68
2023/01/26 02:21:22;;;;;;;51.65;16.63;;;1.00;99.90;;;;;;5051671;28;20043;-68
2023/01/26 02:23:57;;;;;;;62.63;19.73;;;1.00;99.90;;;;;;5034612;28;20037;-68
2023/01/26 02:26:26;;;;;;;54.50;18.75;;;1.00;99.90;;;;;;5066124;28;20090;-68
2023/01/26 02:28:52;;;;;;;51.88;18.35;;;0.90;99.90;;;;;;5073074;28;20076;-69
2023/01/26 02:31:18;;;;;;;53.75;17.95;;;1.00;99.90;;;;;;5072867;28;20036;-68
2023/01/26 02:33:44;;;;;;;53.28;19.95;;;1.10;99.90;;;;;;5072293;28;20119;-68
2023/01/26 02:36:18;;;;;;;45.50;16.17;;;1.10;99.90;;;;;;5072958;28;20032;-68
2023/01/26 02:38:54;;;;;;;41.60;16.08;;;1.10;99.90;;;;;;5071375;28;20501;-69
2023/01/26 02:44:07;;;;;;;46.72;16.17;;;1.10;99.90;;;;;;5071677;28;20044;-69
2023/01/26 02:46:33;;;;;;;40.85;14.65;;;1.20;99.90;;;;;;5054686;28;20036;-69
2023/01/26 02:51:43;;;;;;;46.08;15.07;;;1.20;99.90;;;;;;5071232;28;20485;-69
2023/01/26 02:54:08;;;;;;;42.17;15.13;;;1.20;99.90;;;;;;5070809;28;20036;-69
2023/01/26 02:56:38;;;;;;;38.97;13.80;;;1.30;99.90;;;;;;5072225;28;20079;-69
2023/01/26 02:59:05;;;;;;;35.80;12.57;;;1.20;99.90;;;;;;5072313;28;20500;-69
2023/01/26 03:01:31;;;;;;;32.63;12.88;;;1.10;99.90;;;;;;5071283;28;20103;-69
2023/01/26 03:03:56;;;;;;;33.38;12.95;;;1.20;99.90;;;;;;5071585;28;20064;-69
2023/01/26 03:06:22;;;;;;;29.25;11.98;;;1.30;99.90;;;;;;5072349;28;20036;-69
2023/01/26 03:08:47;;;;;;;33.17;12.93;;;1.30;99.90;;;;;;5071135;28;20036;-69
2023/01/26 03:11:13;;;;;;;34.80;13.38;;;1.30;99.90;;;;;;5072235;28;20033;-69
2023/01/26 03:13:38;;;;;;;30.52;11.48;;;1.30;99.90;;;;;;5072306;28;20051;-69
2023/01/26 03:16:09;;;;;;;37.90;13.88;;;1.30;99.90;;;;;;5071433;28;20040;-69
2023/01/26 03:29:33;;;;;;;30.85;10.75;;;1.30;99.90;;;;;;5071890;28;20052;-69
2023/01/26 03:31:59;;;;;;;30.83;12.75;;;1.40;99.90;;;;;;5071375;28;20108;-69
2023/01/26 03:34:26;;;;;;;26.13;9.77;;;1.30;99.90;;;;;;5071113;28;20043;-69
2023/01/26 03:36:51;;;;;;;24.08;9.60;;;1.40;99.90;;;;;;5071470;28;20405;-69
2023/01/26 03:58:30;;;;;;;24.55;9.05;;;1.40;99.90;;;;;;5071557;28;20044;-70
2023/01/26 04:00:56;;;;;;;24.65;8.88;;;1.40;99.90;;;;;;5071274;28;20036;-70
2023/01/26 04:08:50;;;;;;;20.88;9.27;;;1.40;99.90;;;;;;5071316;28;20045;-70
2023/01/26 04:11:16;;;;;;;21.50;10.55;;;1.40;99.90;;;;;;5070036;28;20052;-70
2023/01/26 04:21:54;;;;;;;23.15;9.20;;;1.50;99.90;;;;;;5069519;28;20041;-70
2023/01/26 04:24:21;;;;;;;23.98;9.65;;;1.50;99.90;;;;;;5068896;28;20037;-71
2023/01/26 04:26:47;;;;;;;21.50;9.95;;;1.50;99.90;;;;;;5070997;28;20046;-70
2023/01/26 04:29:14;;;;;;;22.67;9.57;;;1.50;99.90;;;;;;5070923;28;20079;-70
2023/01/26 04:31:41;;;;;;;29.58;9.70;;;1.50;99.90;;;;;;5070803;28;20036;-71
2023/01/26 04:34:11;;;;;;;20.90;8.57;;;1.50;99.90;;;;;;5068916;28;20463;-71
2023/01/26 04:36:37;;;;;;;23.85;9.88;;;1.50;99.90;;;;;;5069334;28;20094;-70
2023/01/26 04:39:03;;;;;;;20.23;8.73;;;1.60;99.90;;;;;;5070911;28;20033;-70
2023/01/26 04:41:30;;;;;;;22.20;10.00;;;1.50;99.90;;;;;;5070814;28;20097;-71
2023/01/26 04:43:55;;;;;;;23.52;9.50;;;1.60;99.90;;;;;;5069882;28;20040;-70
2023/01/26 04:46:21;;;;;;;21.58;9.02;;;1.60;99.90;;;;;;5070641;28;20405;-70
2023/01/26 04:48:47;;;;;;;22.55;9.35;;;1.50;99.90;;;;;;5070620;28;20033;-71
2023/01/26 04:51:15;;;;;;;23.20;8.45;;;1.60;99.90;;;;;;5070621;28;20044;-70
2023/01/26 04:53:41;;;;;;;19.25;8.35;;;1.60;99.90;;;;;;5070313;28;20045;-72
2023/01/26 04:56:13;;;;;;;22.58;8.43;;;1.60;99.90;;;;;;5070447;28;20408;-71
2023/01/26 04:58:39;;;;;;;25.02;8.32;;;1.60;99.90;;;;;;5070932;28;20044;-70
2023/01/26 05:01:04;;;;;;;17.48;8.40;;;1.60;99.90;;;;;;5073459;28;20516;-71
2023/01/26 05:03:31;;;;;;;21.10;8.30;;;1.60;99.90;;;;;;5074792;28;20511;-71
2023/01/26 05:05:57;;;;;;;22.70;8.80;;;1.60;99.90;;;;;;5073757;28;20044;-71
2023/01/26 05:08:22;;;;;;;16.33;7.45;;;1.60;99.90;;;;;;5074707;28;20047;-71
2023/01/26 05:10:48;;;;;;;19.00;7.57;;;1.60;99.90;;;;;;5056429;28;20052;-70
2023/01/26 05:13:14;;;;;;;19.27;8.10;;;1.60;99.90;;;;;;5056695;28;20381;-70
2023/01/26 05:15:39;;;;;;;20.63;7.55;;;1.60;99.90;;;;;;5073737;28;20044;-71
2023/01/26 05:18:06;;;;;;;21.38;8.25;;;1.60;99.90;;;;;;5074517;28;20072;-71
2023/01/26 05:20:32;;;;;;;18.05;8.02;;;1.60;99.90;;;;;;5072985;28;20481;-71
2023/01/26 05:22:58;;;;;;;18.90;8.05;;;1.70;99.90;;;;;;5074451;28;20096;-71
2023/01/26 05:25:24;;;;;;;19.52;7.05;;;1.60;99.90;;;;;;5073616;28;20044;-70
2023/01/26 05:27:49;;;;;;;16.33;6.65;;;1.60;99.90;;;;;;5073991;28;20107;-71
2023/01/26 05:30:15;;;;;;;19.73;8.13;;;1.60;99.90;;;;;;5074123;28;20105;-71
2023/01/26 05:32:41;;;;;;;16.80;7.32;;;1.60;99.90;;;;;;5072480;28;20052;-72
2023/01/26 05:35:08;;;;;;;19.50;7.32;;;1.60;99.90;;;;;;5073247;28;20041;-70
2023/01/26 05:37:33;;;;;;;19.85;7.75;;;1.60;99.90;;;;;;5073848;28;20048;-72
2023/01/26 05:39:59;;;;;;;19.23;7.85;;;1.70;99.90;;;;;;5074161;28;20125;-70
2023/01/26 05:42:26;;;;;;;16.73;7.55;;;1.70;99.90;;;;;;5073869;28;20040;-70
2023/01/26 05:44:51;;;;;;;19.35;7.82;;;1.70;99.90;;;;;;5072922;28;20045;-71
2023/01/26 05:47:18;;;;;;;17.20;7.28;;;1.70;99.90;;;;;;5073931;28;20046;-70
2023/01/26 05:49:44;;;;;;;17.20;7.32;;;1.70;99.90;;;;;;5073891;28;20108;-70
2023/01/26 05:52:18;;;;;;;16.60;7.45;;;1.70;99.90;;;;;;5073978;28;20126;-71
2023/01/26 05:54:44;;;;;;;18.92;8.30;;;1.70;99.90;;;;;;5073093;28;20392;-71
2023/01/26 05:57:10;;;;;;;20.55;8.23;;;1.60;99.90;;;;;;5073589;28;20036;-72
2023/01/26 05:59:36;;;;;;;20.00;9.63;;;1.70;99.90;;;;;;5073472;28;20472;-71
2023/01/26 06:02:02;;;;;;;19.55;10.27;;;1.80;99.90;;;;;;5073505;28;20072;-71
2023/01/26 06:04:28;;;;;;;16.92;8.32;;;1.80;99.90;;;;;;5072894;28;20033;-71
2023/01/26 06:06:55;;;;;;;19.15;7.00;;;1.70;99.90;;;;;;5073045;28;20055;-71
2023/01/26 06:09:21;;;;;;;15.57;7.20;;;1.70;99.90;;;;;;5072143;28;20075;-70
2023/01/26 06:11:47;;;;;;;14.27;6.93;;;1.70;99.90;;;;;;5072475;28;20532;-70
2023/01/26 06:14:13;;;;;;;17.40;7.88;;;1.80;99.90;;;;;;5072773;28;20037;-71
2023/01/26 06:16:39;;;;;;;15.07;7.32;;;1.70;99.90;;;;;;5073293;28;20067;-71
2023/01/26 06:19:05;;;;;;;15.43;7.22;;;1.80;99.90;;;;;;5073408;28;20043;-72
2023/01/26 06:21:31;;;;;;;19.27;8.85;;;1.80;99.90;;;;;;5072005;28;20076;-70
2023/01/26 06:23:56;;;;;;;18.38;7.70;;;1.80;99.90;;;;;;5072489;28;20036;-71
2023/01/26 06:26:25;;;;;;;14.55;7.10;;;1.80;99.90;;;;;;5072930;28;20037;-71
2023/01/26 06:28:52;;;;;;;14.23;7.53;;;1.80;99.90;;;;;;5073122;28;20041;-72
2023/01/26 06:31:18;;;;;;;15.18;7.25;;;1.80;99.90;;;;;;5071819;28;20056;-70
2023/01/26 06:33:44;;;;;;;14.85;7.22;;;1.80;99.90;;;;;;5071008;28;20097;-70
2023/01/26 06:36:12;;;;;;;16.95;7.20;;;1.80;99.90;;;;;;5071428;28;20040;-71
2023/01/26 06:38:38;;;;;;;17.83;7.57;;;1.80;99.90;;;;;;5072912;28;20123;-70
2023/01/26 06:41:06;;;;;;;13.07;6.40;;;1.80;99.90;;;;;;5071499;28;20074;-70
2023/01/26 06:43:33;;;;;;;74.55;16.75;;;1.80;99.90;;;;;;5072389;28;20056;-71
2023/01/26 06:46:00;;;;;;;42.85;12.52;;;1.80;99.90;;;;;;5070615;28;20048;-70
2023/01/26 06:48:27;;;;;;;24.50;8.95;;;1.80;99.90;;;;;;5072620;28;20497;-71
2023/01/26 06:50:57;;;;;;;22.52;8.73;;;1.80;99.90;;;;;;5072573;28;20033;-70
2023/01/26 06:53:32;;;;;;;21.55;8.82;;;1.80;99.90;;;;;;5072567;28;20647;-70
2023/01/26 06:55:57;;;;;;;23.67;9.00;;;1.80;99.90;;;;;;5071569;28;20105;-70
2023/01/26 06:58:23;;;;;;;20.70;9.75;;;1.80;99.90;;;;;;5072470;28;20504;-70
2023/01/26 07:00:49;;;;;;;22.75;9.05;;;1.80;99.90;;;;;;5072292;28;20432;-69
2023/01/26 07:03:14;;;;;;;23.88;9.00;;;1.80;99.90;;;;;;5072311;28;20117;-69
2023/01/26 07:05:40;;;;;;;28.80;9.80;;;1.80;99.90;;;;;;5070223;28;20041;-69
2023/01/26 07:08:07;;;;;;;27.15;9.32;;;1.80;99.90;;;;;;5072485;28;20495;-70
2023/01/26 07:10:34;;;;;;;25.98;9.15;;;1.80;99.90;;;;;;5072278;28;20400;-70
2023/01/26 07:12:59;;;;;;;23.38;8.73;;;1.80;99.90;;;;;;5072177;28;20125;-70
2023/01/26 07:15:25;;;;;;;30.17;9.93;;;1.80;99.90;;;;;;5070185;28;20509;-69
2023/01/26 07:17:50;;;;;;;25.70;9.63;;;1.80;99.90;;;;;;5072059;28;20052;-70
2023/01/26 07:20:16;;;;;;;30.25;9.55;;;1.90;99.90;;;;;;5071928;28;20050;-70
2023/01/26 07:22:41;;;;;;;26.95;10.23;;;1.90;99.90;;;;;;5070184;28;20040;-70
2023/01/26 07:25:07;;;;;;;32.55;9.77;;;1.80;99.90;;;;;;5070648;28;20569;-70
2023/01/26 07:27:33;;;;;;;31.20;10.30;;;1.90;99.90;;;;;;5070168;28;20045;-70
2023/01/26 07:29:58;;;;;;;26.30;10.18;;;1.90;99.90;;;;;;5071794;28;20037;-70
2023/01/26 07:32:24;;;;;;;39.22;14.10;;;1.90;99.90;;;;;;5071521;28;20036;-70
2023/01/26 07:34:49;;;;;;;67.53;19.35;;;1.90;99.90;;;;;;5064494;28;20044;-70
2023/01/26 07:37:15;;;;;;;79.95;23.05;;;1.90;99.90;;;;;;5060575;28;20905;-70
2023/01/26 07:39:40;;;;;;;66.28;20.63;;;2.00;99.90;;;;;;5060910;28;20402;-70
2023/01/26 07:42:08;;;;;;;88.32;25.08;;;1.90;99.90;;;;;;5067225;28;20041;-70
2023/01/26 07:44:34;;;;;;;64.90;19.73;;;1.90;99.90;;;;;;5067317;28;20044;-69
2023/01/26 07:47:00;;;;;;;64.22;19.75;;;2.00;99.90;;;;;;5067983;28;20119;-70
2023/01/26 07:49:25;;;;;;;49.95;17.13;;;2.00;99.90;;;;;;5071355;28;20044;-70
2023/01/26 07:51:52;;;;;;;88.25;21.52;;;2.00;99.90;;;;;;5071586;28;20045;-70
2023/01/26 07:54:20;;;;;;;57.88;16.73;;;2.00;99.90;;;;;;5070369;28;20047;-71
2023/01/26 07:56:46;;;;;;;53.00;14.35;;;2.00;99.90;;;;;;5071021;28;20507;-70
2023/01/26 07:59:11;;;;;;;61.22;18.08;;;2.00;99.90;;;;;;5071070;28;20127;-70
2023/01/26 08:01:38;;;;;;;55.67;16.90;;;2.10;99.90;;;;;;5070189;28;20039;-70
2023/01/26 08:04:03;;;;;;;59.90;15.40;;;2.10;99.90;;;;;;5052342;28;20082;-69
2023/01/26 08:06:29;;;;;;;68.22;18.95;;;2.00;99.90;;;;;;5069841;28;20036;-71
2023/01/26 08:08:55;;;;;;;51.30;15.65;;;2.10;99.90;;;;;;5071040;28;20075;-70
2023/01/26 08:11:22;;;;;;;50.38;16.27;;;2.10;99.90;;;;;;5071045;28;20047;-71
2023/01/26 08:13:48;;;;;;;41.92;14.95;;;2.10;99.90;;;;;;5052378;28;20048;-70
2023/01/26 08:16:14;;;;;;;43.30;13.68;;;2.10;99.90;;;;;;5069512;28;20348;-70
2023/01/26 08:18:44;;;;;;;42.25;14.63;;;2.10;99.90;;;;;;5071101;28;20615;-71
2023/01/26 08:21:13;;;;;;;43.72;13.50;;;2.10;99.90;;;;;;5070909;28;20047;-70
2023/01/26 08:23:38;;;;;;;43.05;15.27;;;2.10;99.90;;;;;;5070842;28;20382;-71
2023/01/26 08:26:07;;;;;;;48.53;15.90;;;2.10;99.90;;;;;;5068829;28;20086;-71
2023/01/26 08:28:33;;;;;;;43.72;13.35;;;2.20;99.90;;;;;;5071140;28;20358;-70
2023/01/26 08:31:10;;;;;;;42.22;13.30;;;2.20;99.90;;;;;;5070955;28;20044;-71
2023/01/26 08:33:36;;;;;;;38.30;12.38;;;2.10;99.90;;;;;;5069462;28;20080;-70
2023/01/26 08:36:03;;;;;;;38.88;12.05;;;2.20;99.90;;;;;;5069880;28;20044;-70
2023/01/26 08:38:30;;;;;;;37.42;12.38;;;2.10;99.90;;;;;;5070633;28;20439;-69
2023/01/26 08:40:56;;;;;;;34.90;11.80;;;2.20;99.90;;;;;;5052720;28;20533;-70
2023/01/26 08:43:22;;;;;;;38.42;12.50;;;2.20;99.90;;;;;;5070635;28;20113;-70
2023/01/26 08:45:47;;;;;;;26.13;12.10;;;2.10;99.90;;;;;;5069967;28;20492;-70
2023/01/26 08:48:13;;;;;;;32.90;11.85;;;2.10;99.90;;;;;;5070032;28;20028;-70
2023/01/26 08:50:38;;;;;;;29.35;11.15;;;2.10;99.90;;;;;;5052556;28;20040;-70
2023/01/26 08:53:04;;;;;;;27.77;9.77;;;2.10;99.90;;;;;;5069345;28;20083;-71
2023/01/26 08:55:31;;;;;;;27.85;10.38;;;2.20;99.90;;;;;;5069578;28;20554;-71
2023/01/26 08:57:57;;;;;;;31.10;10.48;;;2.30;99.90;;;;;;5069454;28;20076;-70
2023/01/26 09:00:23;;;;;;;30.50;9.25;;;2.10;99.90;;;;;;5070622;28;20090;-69
2023/01/26 09:02:50;;;;;;;24.67;9.48;;;2.20;99.90;;;;;;5069381;28;20115;-70
2023/01/26 09:05:16;;;;;;;24.38;10.35;;;2.20;99.90;;;;;;5051752;28;20079;-69
2023/01/26 09:07:42;;;;;;;33.83;9.52;;;2.20;99.90;;;;;;5069198;28;20084;-71
2023/01/26 09:10:08;;;;;;;28.75;9.52;;;2.20;99.90;;;;;;5070194;28;20072;-69
2023/01/26 09:12:33;;;;;;;23.48;9.43;;;2.10;99.90;;;;;;5070772;28;20049;-70
2023/01/26 09:14:59;;;;;;;22.63;9.30;;;2.10;99.90;;;;;;5068607;28;20564;-70
2023/01/26 09:17:24;;;;;;;24.13;8.18;;;2.10;99.90;;;;;;5068052;28;20110;-70
2023/01/26 09:19:50;;;;;;;25.25;9.05;;;2.10;99.90;;;;;;5057579;28;20052;-71
2023/01/26 09:22:16;;;;;;;23.15;8.32;;;2.20;99.90;;;;;;5050026;28;20083;-70
2023/01/26 09:24:42;;;;;;;20.27;8.88;;;2.20;99.90;;;;;;5047600;28;20486;-71
2023/01/26 09:27:08;;;;;;;20.98;9.18;;;2.20;99.90;;;;;;5049712;28;20049;-70
2023/01/26 09:29:33;;;;;;;19.67;9.13;;;2.20;99.90;;;;;;5061576;28;20041;-70
2023/01/26 09:31:59;;;;;;;19.15;9.73;;;2.20;99.90;;;;;;5069951;28;20047;-70
2023/01/26 09:34:24;;;;;;;20.50;7.88;;;2.30;99.90;;;;;;5068948;28;20048;-71
2023/01/26 09:36:50;;;;;;;22.25;7.72;;;2.30;99.90;;;;;;5068370;28;20084;-71
2023/01/26 09:39:16;;;;;;;15.70;7.15;;;2.30;99.90;;;;;;5070043;28;20693;-72
2023/01/26 09:42:00;;;;;;;16.58;7.90;;;2.30;99.90;;;;;;5068567;28;20033;-70
2023/01/26 09:44:29;;;;;;;18.77;7.82;;;2.40;99.90;;;;;;5068880;28;20083;-69
2023/01/26 09:47:07;;;;;;;20.08;7.63;;;2.50;99.90;;;;;;5070722;28;20086;-70
2023/01/26 09:49:50;;;;;;;22.02;7.55;;;2.50;99.90;;;;;;5073385;28;20044;-72
2023/01/26 09:52:28;;;;;;;32.33;7.60;;;2.50;99.90;;;;;;5073373;28;20118;-71
2023/01/26 09:54:58;;;;;;;19.70;6.85;;;2.50;99.90;;;;;;5072328;28;20041;-71
2023/01/26 09:57:36;;;;;;;28.73;6.70;;;2.60;99.90;;;;;;5073098;28;20066;-74
2023/01/26 10:00:08;;;;;;;25.17;6.72;;;2.60;99.90;;;;;;5071980;28;20053;-71
2023/01/26 10:03:11;;;;;;;21.52;7.15;;;2.60;99.90;;;;;;5073287;28;20043;-70
2023/01/26 10:05:42;;;;;;;23.95;7.90;;;2.60;99.90;;;;;;5072619;28;20079;-70
2023/01/26 10:08:17;;;;;;;28.35;8.00;;;2.80;99.90;;;;;;5073621;28;20408;-71
2023/01/26 10:10:48;;;;;;;26.38;6.90;;;2.80;99.90;;;;;;5073552;28;20041;-70
2023/01/26 10:13:15;;;;;;;21.83;6.72;;;2.90;99.90;;;;;;5073532;28;20045;-71
2023/01/26 10:15:46;;;;;;;18.10;6.30;;;2.90;99.90;;;;;;5072699;28;20131;-71
2023/01/26 10:18:18;;;;;;;19.40;6.13;;;3.00;99.90;;;;;;5073060;28;20408;-72
2023/01/26 10:20:54;;;;;;;26.90;7.13;;;3.00;99.90;;;;;;5073390;28;20036;-70
2023/01/26 10:23:29;;;;;;;17.20;6.15;;;3.10;99.90;;;;;;5073459;28;20037;-71
2023/01/26 10:26:06;;;;;;;21.75;6.28;;;3.10;99.90;;;;;;5072306;28;20428;-71
2023/01/26 10:28:34;;;;;;;27.65;7.30;;;3.00;99.90;;;;;;5073041;28;20440;-71
2023/01/26 10:31:03;;;;;;;20.40;6.65;;;3.20;99.90;;;;;;5072966;28;20040;-71
2023/01/26 10:33:34;;;;;;;21.40;6.40;;;3.10;99.90;;;;;;5070106;28;20051;-71
2023/01/26 10:36:00;;;;;;;20.52;6.95;;;3.20;99.90;;;;;;5071547;28;20039;-70
2023/01/26 10:38:32;;;;;;;21.38;6.90;;;3.30;99.90;;;;;;5072271;28;20123;-71
2023/01/26 10:41:00;;;;;;;30.75;6.93;;;3.30;99.90;;;;;;5072377;28;20072;-72
2023/01/26 10:43:26;;;;;;;24.35;6.25;;;3.40;99.90;;;;;;5072674;28;20743;-70
2023/01/26 10:45:51;;;;;;;24.23;5.90;;;3.50;99.90;;;;;;5071770;28;20036;-70
2023/01/26 10:48:23;;;;;;;27.13;6.97;;;3.60;99.90;;;;;;5072229;28;20063;-70
2023/01/26 10:50:50;;;;;;;28.20;6.13;;;3.60;99.90;;;;;;5054577;28;20044;-71
2023/01/26 10:53:28;;;;;;;15.73;5.70;;;3.60;99.90;;;;;;5071965;28;20116;-71
2023/01/26 10:56:15;;;;;;;18.67;6.00;;;3.80;99.90;;;;;;5071261;28;20055;-70
2023/01/26 10:58:41;;;;;;;19.02;5.80;;;3.90;99.90;;;;;;5070666;28;20540;-70
2023/01/26 11:01:11;;;;;;;22.23;5.65;;;3.90;99.90;;;;;;5070918;28;20078;-70
2023/01/26 11:03:41;;;;;;;31.17;6.85;;;4.00;99.90;;;;;;5070662;28;20045;-71
2023/01/26 11:06:15;;;;;;;31.80;7.80;;;4.10;99.90;;;;;;5053259;28;20048;-74
2023/01/26 11:08:42;;;;;;;40.03;6.95;;;4.10;99.90;;;;;;5072298;28;20056;-73
2023/01/26 11:11:26;;;;;;;24.50;5.25;;;4.20;99.90;;;;;;5072049;28;20131;-70
2023/01/26 11:14:16;;;;;;;31.85;6.75;;;4.40;99.90;;;;;;5070755;28;20056;-71
2023/01/26 11:17:06;;;;;;;28.48;5.10;;;4.40;99.90;;;;;;5070112;28;20127;-71
2023/01/26 11:20:07;;;;;;;30.42;4.68;;;4.50;99.90;;;;;;5071698;28;20059;-70
2023/01/26 11:22:50;;;;;;;25.30;5.30;;;4.60;99.90;;;;;;5070249;28;20048;-70
2023/01/26 11:25:34;;;;;;;20.38;6.03;;;4.60;99.90;;;;;;5069235;28;20111;-71
2023/01/26 11:28:37;;;;;;;21.08;6.30;;;4.70;99.90;;;;;;5070582;28;20032;-71
2023/01/26 11:31:11;;;;;;;;;;;4.80;99.90;;;;;;5071547;28;20123;-70
2023/01/26 11:33:48;;;;;;;26.30;4.70;;;4.90;99.90;;;;;;5071518;28;19923;-71
2023/01/26 11:36:29;;;;;;;23.75;3.97;;;4.90;99.90;;;;;;5071266;28;20048;-70
2023/01/26 11:39:20;;;;;;;28.60;5.53;;;5.00;99.90;;;;;;5071241;28;20048;-71
2023/01/26 11:42:04;;;;;;;26.45;3.95;;;5.20;99.90;;;;;;5071336;28;20107;-71
2023/01/26 11:44:50;;;;;;;25.63;5.85;;;5.30;99.90;;;;;;5069147;28;20044;-70
2023/01/26 11:47:26;;;;;;;20.05;5.10;;;5.40;99.90;;;;;;5009164;28;20055;-71
2023/01/26 11:50:09;;;;;;;25.98;3.40;;;5.50;99.90;;;;;;5049863;28;20067;-71
2023/01/26 11:52:57;;;;;;;25.55;3.97;;;5.60;99.90;;;;;;5051202;28;20037;-71
2023/01/26 11:55:51;;;;;;;16.88;2.85;;;5.70;99.90;;;;;;5048641;28;20041;-70
2023/01/26 11:58:26;;;;;;;16.00;2.85;;;5.70;99.90;;;;;;5050604;28;20045;-71
2023/01/26 12:00:56;;;;;;;25.75;3.90;;;5.80;99.90;;;;;;5051057;28;20045;-70
2023/01/26 12:03:34;;;;;;;25.75;3.03;;;5.80;99.90;;;;;;5051202;28;20077;-72
2023/01/26 12:06:06;;;;;;;17.98;3.08;;;5.90;99.90;;;;;;5050205;28;20044;-71
2023/01/26 12:09:03;;;;;;;23.15;4.45;;;6.00;99.90;;;;;;5050994;28;20544;-71
2023/01/26 12:12:09;;;;;;;23.17;3.38;;;6.10;99.90;;;;;;5027586;28;20064;-71
2023/01/26 12:14:52;;;;;;;27.35;4.20;;;6.10;99.90;;;;;;5048720;28;20052;-71
2023/01/26 12:17:26;;;;;;;25.92;5.07;;;6.20;99.90;;;;;;5049824;28;20049;-71
2023/01/26 12:20:03;;;;;;;22.48;3.55;;;6.30;99.90;;;;;;5051039;28;20067;-71
2023/01/26 12:22:35;;;;;;;25.60;3.67;;;6.30;99.90;;;;;;5050853;28;20514;-71
2023/01/26 12:25:30;;;;;;;22.30;3.97;;;6.40;99.90;;;;;;5050151;28;20037;-71
2023/01/26 12:28:05;;;;;;;18.50;3.10;;;6.40;99.90;;;;;;5035587;28;20092;-70
2023/01/26 12:30:49;;;;;;;22.63;3.50;;;6.50;99.90;;;;;;5050522;28;20481;-71
2023/01/26 12:33:15;;;;;;;18.63;3.42;;;6.60;99.90;;;;;;5050692;28;20028;-70
2023/01/26 12:35:43;;;;;;;23.30;3.40;;;6.70;99.90;;;;;;5065911;28;20040;-71
2023/01/26 12:38:35;;;;;;;21.67;2.88;;;6.80;99.90;;;;;;5069481;28;20459;-71
2023/01/26 12:41:08;;;;;;;19.90;3.80;;;6.80;99.90;;;;;;5068705;28;20102;-70
2023/01/26 12:44:00;;;;;;;10.93;2.78;;;6.80;99.90;;;;;;5067899;28;20047;-69
2023/01/26 12:46:30;;;;;;;17.05;2.83;;;6.80;99.90;;;;;;5059813;28;20037;-71
2023/01/26 12:49:17;;;;;;;19.15;3.28;;;6.90;99.90;;;;;;5052748;28;20048;-71
2023/01/26 12:52:06;;;;;;;16.80;3.85;;;7.00;99.90;;;;;;5048730;28;20111;-74
2023/01/26 12:55:10;;;;;;;24.15;4.28;;;7.00;99.90;;;;;;5048175;28;20037;-70
2023/01/26 12:57:43;;;;;;;25.60;3.85;;;7.10;99.90;;;;;;5058822;28;20049;-70
2023/01/26 13:00:29;;;;;;;15.27;2.30;;;7.10;99.90;;;;;;5060692;28;20036;-70
2023/01/26 13:03:19;;;;;;;10.10;2.38;;;7.10;99.90;;;;;;5060355;28;20039;-70
2023/01/26 13:06:08;;;;;;;14.13;2.17;;;7.10;99.90;;;;;;5059638;28;20122;-70
2023/01/26 13:08:34;;;;;;;9.75;2.20;;;7.10;99.90;;;;;;5050009;28;20531;-70
2023/01/26 13:11:05;;;;;;;18.13;4.40;;;7.10;99.90;;;;;;5061853;28;20036;-70
2023/01/26 13:13:54;;;;;;;10.93;2.13;;;7.10;99.90;;;;;;5059165;28;20711;-70
2023/01/26 13:16:19;;;;;;;6.63;1.77;;;7.10;99.90;;;;;;5060713;28;20055;-69
2023/01/26 13:18:53;;;;;;;11.73;3.00;;;7.20;99.90;;;;;;5058866;28;20029;-70
2023/01/26 13:21:27;;;;;;;10.38;2.25;;;7.20;99.90;;;;;;5059460;28;20029;-69
2023/01/26 13:23:54;;;;;;;13.23;2.10;;;7.20;99.90;;;;;;5060152;28;20041;-69
2023/01/26 13:26:22;;;;;;;9.80;1.92;;;7.20;99.90;;;;;;5062702;28;20032;-69
2023/01/26 13:28:48;;;;;;;10.63;1.92;;;7.20;99.90;;;;;;5054001;28;20116;-71
2023/01/26 13:31:32;;;;;;;9.32;2.88;;;7.20;99.90;;;;;;5053847;28;20076;-71
2023/01/26 13:34:02;;;;;;;9.55;1.58;;;7.20;99.90;;;;;;5052857;28;20051;-70
2023/01/26 13:36:32;;;;;;;7.15;2.05;;;7.20;99.90;;;;;;5053651;28;20044;-70
2023/01/26 13:39:03;;;;;;;8.85;1.55;;;7.20;99.90;;;;;;5053733;28;20066;-69
2023/01/26 13:41:28;;;;;;;12.75;2.42;;;7.30;99.90;;;;;;5053583;28;20485;-70
2023/01/26 13:44:22;;;;;;;9.95;2.72;;;7.30;99.90;;;;;;5051537;28;20058;-70
2023/01/26 13:47:06;;;;;;;7.85;2.58;;;7.30;99.90;;;;;;5053651;28;20041;-70